Time;durP1;ratioP1;P1;durP2;ratioP2;P2;SDS_P1;SDS_P2;PMS_P1;PMS_P2;Temp;Humidity;BMP_temperature;BMP_pressure;BME280_temperature;BME280_humidity;BME280_pressure;Samples;Min_cycle;Max_cycle;Signal;HPM_P1;HPM_P2
2023/01/25 00:00:38;;;;;;;12.93;5.80;;;3.20;99.90;;;2.72;100.00;103040.63;5164104;28;20050;-73
2023/01/25 00:03:11;;;;;;;18.73;6.72;;;3.20;99.90;;;2.73;100.00;103038.19;5164993;28;20043;-73
2023/01/25 00:05:43;;;;;;;15.85;6.18;;;3.20;99.90;;;2.74;100.00;103041.72;5164448;28;20415;-73
2023/01/25 00:08:15;;;;;;;13.48;6.30;;;3.20;99.90;;;2.76;100.00;103042.75;5163193;28;20042;-73
2023/01/25 00:10:51;;;;;;;13.80;6.57;;;3.20;99.90;;;2.81;100.00;103036.44;5158670;28;20058;-73
2023/01/25 00:13:23;;;;;;;17.17;5.93;;;3.20;99.90;;;2.82;100.00;103038.25;5170231;28;20169;-73
2023/01/25 00:16:03;;;;;;;13.60;5.88;;;3.20;99.90;;;2.83;100.00;103034.91;5144330;28;20050;-73
2023/01/25 00:18:35;;;;;;;14.52;6.25;;;3.30;99.90;;;2.81;100.00;103030.38;5142728;28;20051;-73
2023/01/25 00:21:15;;;;;;;15.85;7.05;;;3.20;99.90;;;2.74;100.00;103028.81;5144152;28;20404;-73
2023/01/25 00:23:48;;;;;;;14.93;6.30;;;3.20;99.90;;;2.68;100.00;103034.25;5144373;28;20043;-73
2023/01/25 00:26:21;;;;;;;14.95;6.15;;;3.20;99.90;;;2.65;100.00;103027.88;5144174;28;20043;-73
2023/01/25 00:28:55;;;;;;;15.75;6.55;;;3.10;99.90;;;2.67;100.00;103022.16;5151085;28;20053;-73
2023/01/25 00:31:41;;;;;;;10.90;5.15;;;3.10;99.90;;;2.75;100.00;103025.50;5167532;28;20438;-72
2023/01/25 00:34:48;;;;;;;10.57;4.97;;;3.20;99.90;;;2.82;100.00;103022.78;5162881;28;20060;-73
2023/01/25 00:37:36;;;;;;;13.05;5.80;;;3.20;99.90;;;2.75;100.00;103012.63;5162425;28;20129;-72
2023/01/25 00:40:11;;;;;;;;;;;3.20;99.90;;;2.76;100.00;103016.09;5178601;28;20077;-72
2023/01/25 00:42:44;;;;;;;14.52;6.75;;;3.10;99.90;;;2.76;100.00;103010.94;5180526;28;20319;-72
2023/01/25 00:45:16;;;;;;;16.63;7.43;;;3.20;99.90;;;2.72;100.00;103005.47;5175844;28;20085;-73
2023/01/25 00:47:50;;;;;;;15.25;6.05;;;3.10;99.90;;;2.68;100.00;103003.34;5199565;28;20521;-73
2023/01/25 00:50:22;;;;;;;15.07;6.32;;;3.20;99.90;;;2.68;100.00;103007.59;5183935;28;20131;-73
2023/01/25 00:52:55;;;;;;;15.70;6.85;;;3.10;99.90;;;2.67;100.00;103005.75;5199676;28;20503;-73
2023/01/25 00:55:27;;;;;;;15.13;6.55;;;3.10;99.90;;;2.65;100.00;102996.97;5184126;28;20113;-73
2023/01/25 00:58:00;;;;;;;16.50;7.22;;;3.10;99.90;;;2.60;100.00;103003.31;5182918;28;20054;-73
2023/01/25 01:00:32;;;;;;;13.70;6.13;;;3.10;99.90;;;2.60;100.00;103001.66;5182356;28;20085;-73
2023/01/25 01:03:07;;;;;;;15.38;6.25;;;3.10;99.90;;;2.63;100.00;102998.50;5182659;28;20061;-73
2023/01/25 01:05:39;;;;;;;16.30;6.47;;;3.10;99.90;;;2.67;100.00;102996.38;5182666;28;20053;-73
2023/01/25 01:08:12;;;;;;;14.50;5.72;;;3.10;99.90;;;2.72;100.00;102990.00;5198895;28;20046;-73
2023/01/25 01:10:45;;;;;;;17.25;6.78;;;3.10;99.90;;;2.75;100.00;102991.09;5182420;28;20139;-73
2023/01/25 01:13:18;;;;;;;14.95;6.57;;;3.10;99.90;;;2.72;100.00;102994.25;5199393;28;20068;-72
2023/01/25 01:15:51;;;;;;;14.90;5.93;;;3.10;99.90;;;2.67;100.00;102983.50;5184151;28;20104;-73
2023/01/25 01:18:24;;;;;;;14.43;6.18;;;3.10;99.90;;;2.70;100.00;102986.38;5170948;28;20069;-73
2023/01/25 01:20:57;;;;;;;18.13;7.68;;;3.10;99.90;;;2.73;100.00;102985.75;5141445;28;20101;-72
2023/01/25 01:23:29;;;;;;;16.25;6.95;;;3.10;99.90;;;2.73;100.00;102990.91;5174835;28;20142;-73
2023/01/25 01:26:03;;;;;;;13.93;6.18;;;3.10;99.90;;;2.74;100.00;102990.19;5143684;28;20047;-72
2023/01/25 01:28:38;;;;;;;12.00;5.50;;;3.10;99.90;;;2.81;100.00;102994.28;5201847;23;20062;-64
2023/01/25 01:31:14;;;;;;;13.88;5.80;;;3.10;99.90;;;2.85;100.00;102996.41;5142641;28;20362;-68
2023/01/25 01:33:55;;;;;;;16.90;6.30;;;3.20;99.90;;;2.77;100.00;102995.63;5158139;28;20058;-64
2023/01/25 01:36:31;;;;;;;16.77;6.80;;;3.20;99.90;;;2.72;100.00;102995.16;5142984;28;20050;-64
2023/01/25 01:39:04;;;;;;;15.80;6.75;;;3.10;99.90;;;2.66;100.00;102989.38;5143008;28;20035;-66
2023/01/25 01:41:37;;;;;;;14.73;5.88;;;3.10;99.90;;;2.66;100.00;102996.22;5158349;28;20463;-67
2023/01/25 01:44:19;;;;;;;14.25;6.30;;;3.10;99.90;;;2.66;100.00;102997.13;5157179;28;20053;-67
2023/01/25 01:46:58;;;;;;;16.17;6.82;;;3.10;99.90;;;2.63;100.00;102990.75;5141502;28;20042;-67
2023/01/25 01:49:35;;;;;;;17.63;6.95;;;3.10;99.90;;;2.64;100.00;102985.75;5141989;28;20407;-64
2023/01/25 01:52:19;;;;;;;14.75;6.43;;;3.10;99.90;;;2.69;100.00;102989.72;5146106;28;20053;-64
2023/01/25 01:54:56;;;;;;;15.27;6.43;;;3.10;99.90;;;2.70;100.00;102988.06;5146487;28;20081;-64
2023/01/25 01:57:36;;;;;;;13.13;5.55;;;3.10;99.90;;;2.72;100.00;102999.41;5162539;28;20067;-64
2023/01/25 02:00:14;;;;;;;14.55;5.90;;;3.10;99.90;;;2.69;100.00;102988.81;5145985;28;20550;-65
2023/01/25 02:02:50;;;;;;;13.88;5.97;;;3.10;99.90;;;2.65;100.00;102984.09;5162012;28;20046;-67
2023/01/25 02:05:34;;;;;;;14.90;6.25;;;3.10;99.90;;;2.61;100.00;102979.41;5146886;28;20046;-67
2023/01/25 02:08:09;;;;;;;16.65;6.63;;;3.10;99.90;;;2.57;100.00;102978.16;5147098;28;20095;-64
2023/01/25 02:10:42;;;;;;;;;;;3.00;99.90;;;2.57;100.00;102972.13;5162565;28;20038;-69
2023/01/25 02:13:15;;;;;;;13.38;6.28;;;3.00;99.90;;;2.57;100.00;102978.16;5145756;28;19922;-65
2023/01/25 02:15:51;;;;;;;17.05;6.93;;;3.00;99.90;;;2.54;100.00;102982.09;5146674;28;20054;-64
2023/01/25 02:18:24;;;;;;;;;;;3.00;99.90;;;2.56;100.00;102980.59;5148318;28;20061;-65
2023/01/25 02:21:03;;;;;;;14.25;5.72;;;3.00;99.90;;;2.58;100.00;102984.22;5162639;28;19929;-67
2023/01/25 02:23:47;;;;;;;13.50;6.10;;;3.00;99.90;;;2.58;100.00;102979.97;5148137;28;20110;-68
2023/01/25 02:26:22;;;;;;;18.30;6.63;;;3.00;99.90;;;2.60;100.00;102978.47;5162713;28;20050;-66
2023/01/25 02:29:02;;;;;;;15.40;6.63;;;3.00;99.90;;;2.64;100.00;102980.59;5146570;28;20057;-66
2023/01/25 02:31:34;;;;;;;14.80;5.75;;;3.10;99.90;;;2.66;100.00;102984.25;5162792;28;20066;-65
2023/01/25 02:34:06;;;;;;;15.63;6.13;;;3.10;99.90;;;2.68;100.00;102976.69;5146552;28;20403;-65
2023/01/25 02:36:38;;;;;;;14.85;6.57;;;3.10;99.90;;;2.68;100.00;102976.69;5147969;28;20043;-64
2023/01/25 02:39:17;;;;;;;15.75;6.47;;;3.10;99.90;;;2.63;100.00;102977.88;5144419;28;20093;-63
2023/01/25 02:41:51;;;;;;;15.05;5.97;;;3.10;99.90;;;2.62;100.00;102965.78;5144484;28;20058;-64
2023/01/25 02:44:27;;;;;;;17.75;7.07;;;3.00;99.90;;;2.56;100.00;102972.88;5144860;28;20047;-63
2023/01/25 02:47:00;;;;;;;14.98;6.05;;;3.00;99.90;;;2.43;100.00;102968.13;5144678;28;20061;-65
2023/01/25 02:49:35;;;;;;;15.60;6.25;;;2.90;99.90;;;2.39;100.00;102969.47;5145801;28;20042;-63
2023/01/25 02:52:08;;;;;;;16.23;6.30;;;2.90;99.90;;;2.41;100.00;102965.41;5144648;28;20047;-63
2023/01/25 02:54:40;;;;;;;14.73;5.38;;;2.90;99.90;;;2.47;100.00;102962.53;5144753;28;20047;-63
2023/01/25 02:57:14;;;;;;;14.90;5.82;;;2.90;99.90;;;2.51;100.00;102962.09;5146172;28;20051;-63
2023/01/25 02:59:48;;;;;;;16.40;5.75;;;3.00;99.90;;;2.54;100.00;102961.50;5145422;28;20042;-63
2023/01/25 03:02:21;;;;;;;14.18;5.80;;;2.90;99.90;;;2.55;100.00;102959.09;5160252;28;20078;-62
2023/01/25 03:04:53;;;;;;;15.80;5.93;;;2.90;99.90;;;2.50;100.00;102961.94;5160525;28;20047;-63
2023/01/25 03:07:25;;;;;;;14.40;5.80;;;2.90;99.90;;;2.47;100.00;102956.47;5160936;28;20043;-62
2023/01/25 03:09:59;;;;;;;14.90;6.25;;;2.90;99.90;;;2.49;100.00;102957.56;5160119;28;20050;-63
2023/01/25 03:12:32;;;;;;;12.98;5.85;;;2.90;99.90;;;2.48;100.00;102955.72;5160856;28;20059;-62
2023/01/25 03:15:07;;;;;;;13.68;6.93;;;2.90;99.90;;;2.50;100.00;102959.38;5160708;28;20254;-62
2023/01/25 03:17:40;;;;;;;13.32;6.20;;;2.90;99.90;;;2.50;100.00;102964.53;5160361;28;20047;-62
2023/01/25 03:20:14;;;;;;;14.23;6.30;;;2.90;99.90;;;2.47;100.00;102953.91;5143715;28;20046;-62
2023/01/25 03:22:46;;;;;;;15.07;6.10;;;2.90;99.90;;;2.50;100.00;102956.81;5160795;28;20046;-63
2023/01/25 03:25:19;;;;;;;14.98;6.38;;;2.90;99.90;;;2.53;100.00;102954.53;5160733;28;20058;-63
2023/01/25 03:28:01;;;;;;;14.00;5.80;;;2.90;99.90;;;2.57;100.00;102951.50;5144160;28;20130;-63
2023/01/25 03:30:34;;;;;;;13.48;5.78;;;2.90;99.90;;;2.59;100.00;102950.91;5160056;28;20046;-62
2023/01/25 03:33:08;;;;;;;14.25;5.70;;;2.90;99.90;;;2.61;100.00;102957.13;5145097;28;20061;-63
2023/01/25 03:35:41;;;;;;;14.60;5.88;;;3.00;99.90;;;2.63;100.00;102957.28;5145501;28;20039;-62
2023/01/25 03:38:13;;;;;;;16.35;6.55;;;3.00;99.90;;;2.45;100.00;102956.31;5145005;28;20105;-63
2023/01/25 03:40:47;;;;;;;12.00;5.13;;;2.90;99.90;;;2.43;100.00;102960.41;5159628;28;20071;-63
2023/01/25 03:43:21;;;;;;;13.38;5.85;;;2.90;99.90;;;2.46;100.00;102950.41;5143973;28;20420;-63
2023/01/25 03:45:58;;;;;;;15.35;6.25;;;2.90;99.90;;;2.50;100.00;102946.50;5144197;28;20050;-63
2023/01/25 03:48:31;;;;;;;11.55;5.38;;;2.90;99.90;;;2.52;100.00;102951.03;5159620;28;20054;-62
2023/01/25 03:51:04;;;;;;;12.55;5.38;;;2.90;99.90;;;2.52;100.00;102948.47;5159663;28;20496;-63
2023/01/25 03:53:37;;;;;;;10.93;4.78;;;2.90;99.90;;;2.57;100.00;102954.09;5159908;28;20042;-63
2023/01/25 03:56:18;;;;;;;12.35;5.68;;;2.90;99.90;;;2.59;100.00;102945.75;5159880;28;20051;-63
2023/01/25 03:58:59;;;;;;;13.93;5.55;;;3.00;99.90;;;2.63;100.00;102949.56;5159182;28;20512;-63
2023/01/25 04:01:32;;;;;;;;;;;3.00;99.90;;;2.63;100.00;102941.84;5160198;28;20146;-63
2023/01/25 04:04:05;;;;;;;13.57;6.55;;;3.00;99.90;;;2.63;100.00;102941.84;5143481;28;19989;-63
2023/01/25 04:06:38;;;;;;;12.35;5.88;;;3.00;99.90;;;2.62;100.00;102940.03;5159588;28;20522;-63
2023/01/25 04:09:10;;;;;;;11.40;5.38;;;3.00;99.90;;;2.61;100.00;102948.50;5142782;28;20050;-62
2023/01/25 04:11:50;;;;;;;13.63;6.00;;;3.00;99.90;;;2.57;100.00;102942.13;5159655;28;20149;-63
2023/01/25 04:14:24;;;;;;;14.15;6.65;;;2.90;99.90;;;2.58;100.00;102932.72;5158267;28;20103;-62
2023/01/25 04:17:07;;;;;;;;;;;2.90;99.90;;;2.59;100.00;102920.00;5159809;28;20133;-62
2023/01/25 04:19:54;;;;;;;13.82;6.22;;;2.90;99.90;;;2.54;100.00;102920.28;5142736;28;19926;-63
2023/01/25 04:22:31;;;;;;;16.70;6.90;;;2.90;99.90;;;2.49;100.00;102918.94;5159553;28;20055;-63
2023/01/25 04:25:04;;;;;;;15.25;6.00;;;2.90;99.90;;;2.41;100.00;102911.34;5143408;28;20047;-62
2023/01/25 04:27:37;;;;;;;12.18;5.78;;;2.80;99.90;;;2.39;100.00;102910.28;5159152;28;20074;-63
2023/01/25 04:30:16;;;;;;;15.57;6.30;;;2.80;99.90;;;2.41;100.00;102898.47;5143374;28;20467;-63
2023/01/25 04:32:50;;;;;;;13.02;6.53;;;2.80;99.90;;;2.38;100.00;102903.31;5142858;28;20054;-63
2023/01/25 04:35:35;;;;;;;14.48;6.03;;;2.80;99.90;;;2.35;100.00;102903.00;5159126;28;20450;-62
2023/01/25 04:38:11;;;;;;;15.55;6.47;;;2.80;99.90;;;2.32;100.00;102902.69;5142694;28;20042;-63
2023/01/25 04:40:47;;;;;;;13.95;5.60;;;2.80;99.90;;;2.32;100.00;102896.63;5142410;28;20535;-62
2023/01/25 04:43:21;;;;;;;14.50;6.00;;;2.80;99.90;;;2.32;100.00;102889.81;5142954;28;20056;-62
2023/01/25 04:46:01;;;;;;;14.48;5.97;;;2.80;99.90;;;2.37;100.00;102901.50;5142526;28;20061;-62
2023/01/25 04:48:37;;;;;;;15.48;6.85;;;2.80;99.90;;;2.40;100.00;102888.00;5142709;28;20162;-63
2023/01/25 04:51:13;;;;;;;17.70;8.13;;;2.80;99.90;;;2.37;100.00;102891.19;5158639;28;20046;-63
2023/01/25 04:53:46;;;;;;;14.45;6.35;;;2.80;99.90;;;2.35;100.00;102892.72;5143733;28;20420;-62
2023/01/25 04:56:19;;;;;;;15.75;5.50;;;2.80;99.90;;;2.34;100.00;102885.72;5158359;28;20550;-62
2023/01/25 04:59:00;;;;;;;15.02;6.25;;;2.80;99.90;;;2.33;100.00;102876.19;5158044;28;20055;-63
2023/01/25 05:01:35;;;;;;;15.60;6.35;;;2.80;99.90;;;2.30;100.00;102881.03;5158739;28;20043;-62
2023/01/25 05:04:10;;;;;;;13.15;5.93;;;2.70;99.90;;;2.31;100.00;102879.38;5141986;28;20404;-63
2023/01/25 05:06:46;;;;;;;14.15;6.55;;;2.70;99.90;;;2.30;100.00;102883.63;5158766;28;20514;-62
2023/01/25 05:09:19;;;;;;;15.65;7.53;;;2.80;99.90;;;2.27;100.00;102880.72;5158048;28;20054;-61
2023/01/25 05:11:52;;;;;;;17.02;6.40;;;2.70;99.90;;;2.25;100.00;102884.81;5158260;28;20054;-63
2023/01/25 05:14:37;;;;;;;16.35;6.95;;;2.70;99.90;;;2.28;100.00;102886.75;5158327;28;20050;-62
2023/01/25 05:17:13;;;;;;;16.35;7.10;;;2.70;99.90;;;2.30;100.00;102883.63;5158169;28;20054;-63
2023/01/25 05:19:47;;;;;;;14.50;5.93;;;2.70;99.90;;;2.21;100.00;102880.09;5157819;28;20054;-62
2023/01/25 05:22:21;;;;;;;14.05;6.20;;;2.70;99.90;;;2.22;100.00;102878.41;5158039;28;20062;-62
2023/01/25 05:24:58;;;;;;;11.52;5.40;;;2.60;99.90;;;2.23;100.00;102875.13;5142151;28;20113;-63
2023/01/25 05:27:30;;;;;;;13.93;6.13;;;2.70;99.90;;;2.18;100.00;102874.66;5158257;28;20066;-62
2023/01/25 05:30:03;;;;;;;13.75;6.00;;;2.60;99.90;;;2.17;100.00;102872.84;5142748;28;20069;-63
2023/01/25 05:32:44;;;;;;;13.23;5.35;;;2.60;99.90;;;2.16;100.00;102868.44;5157817;28;20046;-62
2023/01/25 05:35:18;;;;;;;14.68;5.80;;;2.60;99.90;;;2.18;100.00;102866.94;5157776;28;20046;-62
2023/01/25 05:37:56;;;;;;;11.20;4.97;;;2.60;99.90;;;2.25;100.00;102865.88;5141860;28;20047;-63
2023/01/25 05:40:29;;;;;;;13.85;5.90;;;2.60;99.90;;;2.31;100.00;102864.84;5141489;28;20039;-63
2023/01/25 05:43:04;;;;;;;13.10;5.95;;;2.70;99.90;;;2.36;100.00;102861.06;5158048;28;20566;-62
2023/01/25 05:45:37;;;;;;;12.82;5.35;;;2.70;99.90;;;2.41;100.00;102859.88;5141785;28;20141;-62
2023/01/25 05:48:13;;;;;;;12.57;5.25;;;2.80;99.90;;;2.42;100.00;102869.41;5158122;28;20038;-63
2023/01/25 05:50:46;;;;;;;12.43;5.20;;;2.80;99.90;;;2.44;100.00;102866.97;5142783;28;20043;-62
2023/01/25 05:53:25;;;;;;;14.02;5.78;;;2.80;99.90;;;2.47;100.00;102863.78;5141589;28;20534;-63
2023/01/25 05:56:04;;;;;;;13.15;5.22;;;2.80;99.90;;;2.43;100.00;102855.78;5142614;28;20047;-63
2023/01/25 05:58:38;;;;;;;15.60;6.43;;;2.80;99.90;;;2.42;100.00;102859.09;5141840;28;20137;-62
2023/01/25 06:01:10;;;;;;;14.15;6.00;;;2.80;99.90;;;2.40;100.00;102855.44;5142393;28;20038;-63
2023/01/25 06:03:53;;;;;;;19.75;7.30;;;2.80;99.90;;;2.39;100.00;102856.22;5141660;28;20057;-62
2023/01/25 06:06:27;;;;;;;13.57;5.85;;;2.80;99.90;;;2.40;100.00;102855.44;5157600;28;20046;-62
2023/01/25 06:09:01;;;;;;;15.65;6.20;;;2.80;99.90;;;2.44;100.00;102857.59;5142616;28;20403;-62
2023/01/25 06:11:33;;;;;;;16.70;7.15;;;2.80;99.90;;;2.40;100.00;102855.44;5141333;28;20074;-62
2023/01/25 06:14:06;;;;;;;18.23;7.20;;;2.80;99.90;;;2.33;100.00;102853.03;5157978;28;20078;-63
2023/01/25 06:16:38;;;;;;;15.05;6.70;;;2.80;99.90;;;2.28;100.00;102854.25;5142539;28;20043;-62
2023/01/25 06:19:33;;;;;;;16.35;6.57;;;2.70;99.90;;;2.25;100.00;102843.63;5141950;28;20090;-62
2023/01/25 06:22:23;;;;;;;17.15;6.88;;;2.70;99.90;;;2.22;100.00;102843.34;5142778;28;20118;-63
2023/01/25 06:24:56;;;;;;;15.02;6.63;;;2.60;99.90;;;2.24;100.00;102846.97;5142403;28;20125;-63
2023/01/25 06:27:28;;;;;;;17.60;6.30;;;2.70;99.90;;;2.26;100.00;102844.53;5142725;28;20077;-62
2023/01/25 06:30:00;;;;;;;15.50;5.97;;;2.70;99.90;;;2.32;100.00;102845.16;5157179;28;20043;-62
2023/01/25 06:32:33;;;;;;;15.77;6.10;;;2.70;99.90;;;2.38;100.00;102836.38;5142557;28;20050;-63
2023/01/25 06:35:08;;;;;;;14.32;5.57;;;2.70;99.90;;;2.40;100.00;102842.56;5142778;28;20058;-62
2023/01/25 06:37:40;;;;;;;14.40;5.47;;;2.80;99.90;;;2.43;100.00;102834.28;5145533;28;20054;-62
2023/01/25 06:40:13;;;;;;;12.55;5.43;;;2.80;99.90;;;2.47;100.00;102836.38;5146478;28;20041;-62
2023/01/25 06:42:45;;;;;;;16.60;6.43;;;2.80;99.90;;;2.45;100.00;102835.31;5146971;28;20129;-62
2023/01/25 06:45:18;;;;;;;15.68;6.40;;;2.80;99.90;;;2.42;100.00;102833.38;5146410;28;20416;-62
2023/01/25 06:47:50;;;;;;;15.00;6.28;;;2.80;99.90;;;2.41;100.00;102831.56;5146688;28;20046;-63
2023/01/25 06:50:24;;;;;;;18.50;7.13;;;2.80;99.90;;;2.37;100.00;102832.00;5146357;28;20085;-62
2023/01/25 06:52:57;;;;;;;17.58;6.93;;;2.80;99.90;;;2.34;100.00;102833.31;5146732;28;20039;-62
2023/01/25 06:55:29;;;;;;;16.25;6.85;;;2.70;99.90;;;2.36;100.00;102835.31;5146306;28;20049;-62
2023/01/25 06:58:01;;;;;;;16.63;5.93;;;2.80;99.90;;;2.40;100.00;102836.53;5146304;28;20142;-62
2023/01/25 07:00:33;;;;;;;18.63;6.97;;;2.80;99.90;;;2.42;100.00;102833.38;5145807;28;20114;-62
2023/01/25 07:03:06;;;;;;;21.02;7.50;;;2.80;99.90;;;2.39;100.00;102842.44;5146327;28;20049;-63
2023/01/25 07:05:39;;;;;;;17.27;6.70;;;2.80;99.90;;;2.40;100.00;102845.16;5145818;28;20047;-53
2023/01/25 07:08:11;;;;;;;14.35;6.07;;;2.80;99.90;;;2.43;100.00;102850.63;5145706;28;20051;-52
2023/01/25 07:10:43;;;;;;;17.17;6.85;;;2.80;99.90;;;2.42;100.00;102846.22;5143810;28;20054;-51
2023/01/25 07:13:15;;;;;;;17.92;6.80;;;2.80;99.90;;;2.40;100.00;102850.28;5144817;28;20046;-52
2023/01/25 07:15:53;;;;;;;15.50;6.22;;;2.80;99.90;;;2.39;100.00;102853.63;5145604;28;20042;-51
2023/01/25 07:18:28;;;;;;;16.88;6.93;;;2.80;99.90;;;2.41;100.00;102857.28;5145410;28;20069;-51
2023/01/25 07:21:08;;;;;;;13.90;6.25;;;2.80;99.90;;;2.45;100.00;102838.81;5144963;28;20043;-51
2023/01/25 07:23:40;;;;;;;14.52;6.47;;;2.90;99.90;;;2.47;100.00;102841.53;5144658;28;20404;-52
2023/01/25 07:26:17;;;;;;;14.27;5.43;;;2.90;99.90;;;2.51;100.00;102842.75;5145404;28;20384;-52
2023/01/25 07:28:50;;;;;;;14.98;6.15;;;2.80;99.90;;;2.52;100.00;102840.31;5233774;23;20294;-56
2023/01/25 07:31:23;;;;;;;13.77;5.68;;;2.80;99.90;;;2.68;100.00;102847.91;5167475;28;20145;-56
2023/01/25 07:33:57;;;;;;;15.85;6.38;;;3.00;99.90;;;2.73;100.00;102844.09;5169214;28;20046;-54
2023/01/25 07:36:31;;;;;;;15.48;6.15;;;3.10;99.90;;;2.73;100.00;102849.25;5165629;28;20053;-54
2023/01/25 07:39:03;;;;;;;16.63;6.55;;;3.10;99.90;;;2.70;100.00;102846.41;5164786;28;20120;-56
2023/01/25 07:41:35;;;;;;;17.13;6.43;;;3.10;99.90;;;2.74;100.00;102843.38;5164903;28;20414;-56
2023/01/25 07:44:07;;;;;;;16.90;6.30;;;3.10;99.90;;;2.72;100.00;102842.28;5150285;28;20047;-56
2023/01/25 07:46:43;;;;;;;17.55;7.13;;;3.10;99.90;;;2.64;100.00;102838.06;5158302;28;20046;-57
2023/01/25 07:49:16;;;;;;;18.05;6.88;;;3.00;99.90;;;2.47;100.00;102841.53;5142567;28;20039;-56
2023/01/25 07:51:49;;;;;;;13.77;6.20;;;2.90;99.90;;;2.41;100.00;102836.69;5158209;28;20050;-56
2023/01/25 07:54:21;;;;;;;17.38;6.90;;;2.90;99.90;;;2.39;100.00;102843.34;5164518;28;20407;-56
2023/01/25 07:56:53;;;;;;;20.38;7.78;;;2.80;99.90;;;2.36;100.00;102842.13;5165282;28;20052;-54
2023/01/25 07:59:26;;;;;;;16.27;6.57;;;2.80;99.90;;;2.30;100.00;102842.44;5149472;28;20035;-56
2023/01/25 08:01:58;;;;;;;14.50;5.95;;;2.80;99.90;;;2.33;100.00;102842.72;5145495;28;20148;-56
2023/01/25 08:04:30;;;;;;;15.82;6.80;;;2.80;99.90;;;2.36;100.00;102848.19;5163501;28;20141;-56
2023/01/25 08:07:04;;;;;;;22.33;7.38;;;2.80;99.90;;;2.34;100.00;102839.38;5164030;28;20038;-57
2023/01/25 08:09:36;;;;;;;18.15;7.15;;;2.80;99.90;;;2.28;100.00;102841.38;5163516;28;20038;-56
2023/01/25 08:12:09;;;;;;;17.20;6.85;;;2.70;99.90;;;2.27;100.00;102842.09;5164333;28;20051;-56
2023/01/25 08:14:41;;;;;;;14.60;6.97;;;2.70;99.90;;;2.27;100.00;102842.09;5152815;28;20407;-56
2023/01/25 08:17:13;;;;;;;18.05;7.43;;;2.70;99.90;;;2.28;100.00;102843.00;5144063;28;20389;-57
2023/01/25 08:19:45;;;;;;;16.23;6.78;;;2.70;99.90;;;2.31;100.00;102844.25;5143981;28;20055;-56
2023/01/25 08:22:18;;;;;;;22.38;7.93;;;2.70;99.90;;;2.31;100.00;102841.66;5144364;28;20126;-56
2023/01/25 08:24:50;;;;;;;20.00;8.18;;;2.70;99.90;;;2.28;100.00;102833.66;5144359;28;20038;-56
2023/01/25 08:27:23;;;;;;;18.35;7.15;;;2.70;99.90;;;2.31;100.00;102836.53;5144378;28;20039;-54
2023/01/25 08:29:55;;;;;;;17.40;6.57;;;2.70;99.90;;;2.34;100.00;102836.81;5143976;28;20381;-54
2023/01/25 08:32:27;;;;;;;18.05;7.15;;;2.80;99.90;;;2.39;100.00;102833.03;5144046;28;20042;-54
2023/01/25 08:34:59;;;;;;;18.83;7.32;;;2.80;99.90;;;2.40;100.00;102845.16;5144385;28;20047;-56
2023/01/25 08:37:32;;;;;;;17.58;7.25;;;2.80;99.90;;;2.44;100.00;102830.94;5143934;28;20039;-56
2023/01/25 08:40:06;;;;;;;20.08;6.75;;;2.80;99.90;;;2.48;100.00;102826.97;5143555;28;20062;-56
2023/01/25 08:42:38;;;;;;;16.27;6.75;;;2.80;99.90;;;2.47;100.00;102828.66;5144203;28;20837;-56
2023/01/25 08:45:11;;;;;;;15.68;6.13;;;2.80;99.90;;;2.49;100.00;102823.69;5144457;28;20049;-57
2023/01/25 08:47:43;;;;;;;18.60;6.68;;;2.80;99.90;;;2.51;100.00;102827.31;5143943;28;20058;-56
2023/01/25 08:50:15;;;;;;;21.80;8.30;;;2.80;99.90;;;2.45;100.00;102819.88;5143690;28;20038;-56
2023/01/25 08:52:49;;;;;;;19.95;7.38;;;2.90;99.90;;;2.47;100.00;102825.16;5143994;28;20051;-56
2023/01/25 08:55:21;;;;;;;18.02;7.10;;;2.90;99.90;;;2.45;100.00;102823.34;5145838;28;20043;-57
2023/01/25 08:57:53;;;;;;;20.83;7.47;;;2.90;99.90;;;2.42;100.00;102812.78;5163650;28;20080;-56
2023/01/25 09:00:25;;;;;;;20.48;7.90;;;2.80;99.90;;;2.41;100.00;102822.88;5161873;28;20460;-57
2023/01/25 09:02:58;;;;;;;22.17;8.48;;;2.80;99.90;;;2.34;100.00;102823.94;5163693;28;20053;-52
2023/01/25 09:05:30;;;;;;;24.58;9.10;;;2.80;99.90;;;2.20;100.00;102825.91;5163866;28;20046;-53
2023/01/25 09:08:06;;;;;;;17.52;7.93;;;2.70;99.90;;;2.13;100.00;102821.81;5163503;28;20133;-55
2023/01/25 09:10:38;;;;;;;20.60;7.47;;;2.60;99.90;;;2.09;100.00;102815.44;5164073;28;20046;-53
2023/01/25 09:13:10;;;;;;;16.83;6.88;;;2.60;99.90;;;2.11;100.00;102818.19;5163531;28;20046;-53
2023/01/25 09:15:43;;;;;;;17.67;7.82;;;2.60;99.90;;;2.11;100.00;102813.94;5163838;28;20403;-54
2023/01/25 09:18:15;;;;;;;19.20;7.35;;;2.60;99.90;;;2.16;100.00;102809.25;5163411;28;20510;-54
2023/01/25 09:20:47;;;;;;;20.13;7.57;;;2.60;99.90;;;2.21;100.00;102810.59;5162270;28;20038;-53
2023/01/25 09:23:22;;;;;;;17.63;6.45;;;2.60;99.90;;;2.22;100.00;102812.44;5163494;28;20057;-53
2023/01/25 09:25:58;;;;;;;20.45;7.75;;;2.70;99.90;;;2.24;100.00;102805.78;5163588;28;20046;-54
2023/01/25 09:28:32;;;;;;;19.60;7.45;;;2.70;99.90;;;2.28;100.00;102801.81;5161936;28;20073;-54
2023/01/25 09:31:06;;;;;;;19.20;6.88;;;2.70;99.90;;;2.32;100.00;102793.66;5163425;28;20046;-54
2023/01/25 09:34:02;;;;;;;13.13;5.72;;;2.70;99.90;;;2.35;100.00;102800.03;5161353;28;20062;-53
2023/01/25 09:36:34;;;;;;;17.02;6.88;;;2.70;99.90;;;2.37;100.00;102797.63;5163193;28;20071;-54
2023/01/25 09:39:10;;;;;;;20.15;7.13;;;2.70;99.90;;;2.40;100.00;102792.75;5163540;28;20046;-53
2023/01/25 09:42:31;;;;;;;20.42;6.93;;;2.80;99.90;;;2.38;100.00;102795.19;5163588;28;20049;-53
2023/01/25 09:45:15;;;;;;;15.88;6.75;;;2.80;99.90;;;2.36;100.00;102798.38;5163205;28;20046;-53
2023/01/25 09:47:56;;;;;;;21.35;7.47;;;2.80;99.90;;;2.29;100.00;102790.81;5177440;28;20421;-54
2023/01/25 09:50:38;;;;;;;20.08;7.45;;;2.70;99.90;;;2.23;100.00;102787.63;5163442;28;20569;-53
2023/01/25 09:53:38;;;;;;;17.27;6.57;;;2.70;99.90;;;2.20;100.00;102777.91;5163550;28;20046;-53
2023/01/25 09:56:17;;;;;;;18.67;7.18;;;2.70;99.90;;;2.23;100.00;102783.38;5140351;28;20070;-53
2023/01/25 09:58:54;;;;;;;18.60;7.47;;;2.70;99.90;;;2.22;100.00;102779.00;5163363;28;20057;-54
2023/01/25 10:01:33;;;;;;;22.48;7.47;;;2.70;99.90;;;2.18;100.00;102774.28;5162353;28;20381;-54
2023/01/25 10:04:14;;;;;;;20.73;8.32;;;2.70;99.90;;;2.12;100.00;102776.25;5163726;28;20062;-54
2023/01/25 10:06:50;;;;;;;19.10;7.22;;;2.60;99.90;;;2.11;100.00;102769.28;5163219;28;20128;-53
2023/01/25 10:09:39;;;;;;;19.00;7.18;;;2.60;99.90;;;2.14;100.00;102761.84;5162276;28;20053;-53
2023/01/25 10:12:19;;;;;;;17.48;7.53;;;2.60;99.90;;;2.18;100.00;102759.75;5161885;28;20042;-53
2023/01/25 10:14:52;;;;;;;21.83;7.53;;;2.60;99.90;;;2.21;100.00;102759.13;5165432;28;20414;-53
2023/01/25 10:17:33;;;;;;;21.73;8.30;;;2.70;99.90;;;2.23;100.00;102762.78;5165035;28;20050;-53
2023/01/25 10:20:20;;;;;;;22.77;8.50;;;2.70;99.90;;;2.24;100.00;102749.16;5165475;28;20057;-54
2023/01/25 10:23:15;;;;;;;20.88;8.15;;;2.70;99.90;;;2.18;100.00;102753.69;5180461;28;20046;-54
2023/01/25 10:25:57;;;;;;;21.58;7.82;;;2.70;99.90;;;2.19;100.00;102750.38;5166528;28;20054;-54
2023/01/25 10:28:41;;;;;;;21.77;8.55;;;2.70;99.90;;;2.20;100.00;102744.44;5167017;28;20515;-53
2023/01/25 10:31:18;;;;;;;23.98;9.00;;;2.60;99.90;;;2.22;100.00;102736.88;5167389;28;20516;-54
2023/01/25 10:33:52;;;;;;;23.05;8.55;;;2.60;99.90;;;2.26;100.00;102733.88;5164976;28;20057;-54
2023/01/25 10:36:31;;;;;;;21.70;8.07;;;2.70;99.90;;;2.32;100.00;102730.22;5167134;28;20046;-54
2023/01/25 10:39:06;;;;;;;21.77;7.95;;;2.70;99.90;;;2.36;100.00;102724.63;5167162;28;20499;-54
2023/01/25 10:41:41;;;;;;;18.20;7.65;;;2.70;99.90;;;2.39;100.00;102721.44;5166606;28;20046;-54
2023/01/25 10:44:24;;;;;;;25.98;9.35;;;2.70;99.90;;;2.36;100.00;102719.50;5166461;28;20046;-54
2023/01/25 10:47:01;;;;;;;33.60;12.45;;;2.80;99.90;;;2.38;100.00;102710.25;5166337;28;20407;-53